Time;durP1;ratioP1;P1;durP2;ratioP2;P2;SDS_P1;SDS_P2;PMS_P1;PMS_P2;Temp;Humidity;BMP_temperature;BMP_pressure;BME280_temperature;BME280_humidity;BME280_pressure;Samples;Min_cycle;Max_cycle;Signal;HPM_P1;HPM_P2
2023/04/28 00:01:45;;;;;;;15.25;9.57;;;;;;;7.90;67.80;101857.28;7394786;19;20018;-64
2023/04/28 00:04:12;;;;;;;14.68;9.73;;;;;;;7.85;67.83;101854.00;7393066;19;20018;-64
2023/04/28 00:06:40;;;;;;;14.85;9.15;;;;;;;7.86;67.77;101859.22;7394372;19;20500;-65
2023/04/28 00:09:10;;;;;;;15.07;9.90;;;;;;;7.81;67.76;101858.56;7394534;19;20022;-66
2023/04/28 00:11:37;;;;;;;15.80;10.38;;;;;;;7.85;67.70;101856.63;7393635;19;20027;-64
2023/04/28 00:14:05;;;;;;;16.73;10.63;;;;;;;7.93;67.50;101854.50;7392854;19;20015;-65
2023/04/28 00:16:32;;;;;;;16.40;10.63;;;;;;;7.92;67.50;101844.91;7394448;19;20018;-65
2023/04/28 00:18:59;;;;;;;16.17;10.30;;;;;;;7.75;67.88;101845.66;7394399;19;20006;-64
2023/04/28 00:21:27;;;;;;;18.38;11.70;;;;;;;7.73;67.87;101834.31;7394995;19;20022;-64
2023/04/28 00:23:54;;;;;;;14.20;9.77;;;;;;;7.79;67.69;101839.31;7393013;19;20019;-64
2023/04/28 00:26:21;;;;;;;16.42;10.82;;;;;;;7.69;67.97;101838.00;7393125;19;20031;-64
2023/04/28 00:28:48;;;;;;;15.00;10.82;;;;;;;7.68;67.97;101837.16;7391305;19;20566;-63
2023/04/28 00:31:16;;;;;;;16.05;10.32;;;;;;;7.70;68.05;101837.94;7391369;19;20351;-64
2023/04/28 00:33:43;;;;;;;16.48;10.68;;;;;;;7.75;67.66;101830.69;7392592;19;20021;-65
2023/04/28 00:36:10;;;;;;;15.20;10.95;;;;;;;7.67;67.86;101819.63;7394444;19;20022;-65
2023/04/28 00:38:38;;;;;;;16.38;11.27;;;;;;;7.69;67.87;101825.69;7393724;19;20018;-64
2023/04/28 00:41:08;;;;;;;15.50;10.88;;;;;;;7.64;67.72;101821.56;7394246;19;20052;-65
2023/04/28 00:43:46;;;;;;;15.38;10.45;;;;;;;7.62;67.61;101826.03;7391010;19;20018;-64
2023/04/28 00:46:28;;;;;;;16.33;10.98;;;;;;;7.58;67.63;101814.75;7392162;19;20093;-63
2023/04/28 00:48:59;;;;;;;17.70;11.15;;;;;;;7.40;68.16;101807.66;7393874;19;20026;-64
2023/04/28 00:51:29;;;;;;;16.38;10.60;;;;;;;7.54;67.67;101806.13;7393750;19;20011;-64
2023/04/28 00:53:56;;;;;;;17.45;11.55;;;;;;;7.47;68.04;101807.31;7392128;19;20413;-64
2023/04/28 00:56:26;;;;;;;18.58;11.77;;;;;;;7.45;67.83;101798.63;7393871;19;20082;-64
2023/04/28 00:58:53;;;;;;;16.38;11.00;;;;;;;7.49;67.57;101792.31;7393504;19;20353;-64
2023/04/28 01:01:20;;;;;;;19.42;11.68;;;;;;;7.43;68.06;101797.81;7393223;19;20014;-64
2023/04/28 01:03:48;;;;;;;14.95;11.07;;;;;;;7.43;68.04;101795.19;7390719;19;20025;-64
2023/04/28 01:06:16;;;;;;;15.55;11.30;;;;;;;7.42;67.94;101797.91;7392834;19;20382;-64
2023/04/28 01:08:47;;;;;;;18.17;12.13;;;;;;;7.45;67.66;101793.38;7392955;19;20026;-64
2023/04/28 01:11:16;;;;;;;16.42;12.10;;;;;;;7.24;68.29;101783.75;7392035;19;20019;-64
2023/04/28 01:13:43;;;;;;;19.77;12.68;;;;;;;7.32;67.92;101786.91;7391599;19;20019;-64
2023/04/28 01:16:10;;;;;;;18.80;12.80;;;;;;;7.36;67.90;101777.94;7390864;19;20421;-64
2023/04/28 01:18:41;;;;;;;18.48;12.60;;;;;;;7.39;67.71;101779.59;7390714;19;20026;-65
2023/04/28 01:21:08;;;;;;;17.63;12.27;;;;;;;7.31;67.96;101777.28;7393432;19;20011;-65
2023/04/28 01:23:35;;;;;;;18.17;12.38;;;;;;;7.28;68.19;101778.28;7390848;19;20051;-64
2023/04/28 01:26:02;;;;;;;17.80;12.65;;;;;;;7.24;67.84;101781.09;7390402;19;20499;-65
2023/04/28 01:28:30;;;;;;;17.90;11.70;;;;;;;7.17;68.01;101777.88;7391679;19;20495;-67
2023/04/28 01:30:57;;;;;;;18.95;12.80;;;;;;;7.22;68.04;101781.19;7392877;19;20018;-65
2023/04/28 01:33:24;;;;;;;18.58;12.73;;;;;;;7.15;68.07;101766.56;7393766;19;20034;-64
2023/04/28 01:35:56;;;;;;;19.50;12.75;;;;;;;7.17;68.14;101775.25;7392222;19;20022;-62
2023/04/28 01:38:23;;;;;;;19.20;12.93;;;;;;;7.09;68.11;101761.56;7391537;19;20010;-63
2023/04/28 01:40:54;;;;;;;18.48;13.10;;;;;;;7.09;68.17;101762.41;7391203;19;20019;-63
2023/04/28 01:43:21;;;;;;;18.58;12.98;;;;;;;7.07;68.14;101755.50;7390461;19;20539;-63
2023/04/28 01:45:48;;;;;;;20.42;13.25;;;;;;;7.06;68.19;101753.81;7391902;19;20021;-64
2023/04/28 01:48:15;;;;;;;20.38;13.55;;;;;;;7.03;68.09;101751.28;7392174;19;20492;-64
2023/04/28 01:50:46;;;;;;;18.58;13.18;;;;;;;6.92;68.46;101746.47;7389855;19;20018;-64
2023/04/28 01:53:13;;;;;;;18.95;13.18;;;;;;;6.94;68.20;101736.72;7389528;19;20026;-64
2023/04/28 01:55:40;;;;;;;18.27;13.10;;;;;;;7.04;68.03;101745.09;7391098;19;20017;-65
2023/04/28 01:58:09;;;;;;;19.27;13.68;;;;;;;7.05;67.99;101739.75;7390383;19;20025;-64
2023/04/28 02:00:36;;;;;;;19.70;13.75;;;;;;;6.99;67.95;101742.66;7390734;19;20361;-64
2023/04/28 02:03:03;;;;;;;20.38;12.73;;;;;;;6.97;68.32;101736.59;7391059;19;20029;-63
2023/04/28 02:05:31;;;;;;;18.30;12.30;;;;;;;6.90;68.31;101729.88;7389584;19;20015;-64
2023/04/28 02:07:58;;;;;;;17.45;12.52;;;;;;;6.94;68.06;101725.34;7389622;19;20024;-64
2023/04/28 02:10:25;;;;;;;18.67;12.98;;;;;;;6.98;68.11;101709.38;7389732;19;20018;-64
2023/04/28 02:12:52;;;;;;;19.50;13.13;;;;;;;6.87;68.39;101713.34;7389098;19;20030;-65
2023/04/28 02:15:21;;;;;;;18.00;12.88;;;;;;;6.93;68.03;101719.22;7389715;19;20014;-65
2023/04/28 02:17:48;;;;;;;19.88;13.05;;;;;;;6.98;67.98;101719.91;7391334;19;20029;-65
2023/04/28 02:20:15;;;;;;;17.33;12.32;;;;;;;7.02;67.65;101715.31;7390939;19;20018;-65
2023/04/28 02:22:42;;;;;;;17.15;12.10;;;;;;;7.12;67.20;101710.53;7390287;19;20022;-64
2023/04/28 02:25:09;;;;;;;19.17;12.88;;;;;;;7.13;67.17;101704.34;7391242;19;20082;-64
2023/04/28 02:27:39;;;;;;;18.83;11.77;;;;;;;7.09;67.03;101704.47;7390183;19;20018;-65
2023/04/28 02:30:07;;;;;;;19.40;12.55;;;;;;;7.03;67.35;101699.47;7390481;19;20023;-64
2023/04/28 02:32:34;;;;;;;17.38;12.80;;;;;;;7.01;67.38;101696.03;7390272;19;20026;-64
2023/04/28 02:35:01;;;;;;;18.98;12.60;;;;;;;7.05;67.20;101708.16;7389446;19;20029;-65
2023/04/28 02:37:28;;;;;;;17.50;12.57;;;;;;;7.02;67.25;101700.41;7390570;19;20023;-65
2023/04/28 02:39:55;;;;;;;19.23;12.48;;;;;;;6.79;67.88;101696.13;7388891;19;20018;-64
2023/04/28 02:42:22;;;;;;;18.60;12.93;;;;;;;6.80;68.28;101684.69;7389810;19;20015;-64
2023/04/28 02:44:49;;;;;;;17.15;12.65;;;;;;;6.81;68.07;101688.16;7388750;19;20558;-65
2023/04/28 02:47:16;;;;;;;18.27;12.40;;;;;;;6.76;68.12;101683.09;7388296;19;20018;-64
2023/04/28 02:49:44;;;;;;;17.20;11.63;;;;;;;6.71;68.09;101681.56;7389857;19;20021;-64
2023/04/28 02:52:11;;;;;;;20.23;12.00;;;;;;;6.74;68.10;101681.44;7388735;19;20035;-65
2023/04/28 02:54:38;;;;;;;18.73;12.20;;;;;;;6.74;68.02;101668.28;7395271;19;20032;-64
2023/04/28 02:57:08;;;;;;;17.45;12.15;;;;;;;6.81;67.47;101656.56;7397545;19;20526;-64
2023/04/28 02:59:35;;;;;;;19.45;12.70;;;;;;;6.80;67.17;101662.78;7394929;19;20344;-64
2023/04/28 03:02:02;;;;;;;17.63;11.68;;;;;;;6.77;67.28;101655.00;7398144;19;20025;-64
2023/04/28 03:04:31;;;;;;;17.75;12.25;;;;;;;6.74;67.20;101649.84;7392847;19;20039;-63
2023/04/28 03:06:58;;;;;;;17.70;12.23;;;;;;;6.77;67.14;101650.59;7397644;19;20014;-63
2023/04/28 03:09:25;;;;;;;17.67;11.77;;;;;;;6.71;67.11;101650.00;7396666;19;20015;-63
2023/04/28 03:11:52;;;;;;;17.60;12.00;;;;;;;6.63;67.67;101645.06;7396195;19;20051;-63
2023/04/28 03:14:19;;;;;;;19.08;12.18;;;;;;;6.67;67.10;101644.00;7393946;19;20015;-64
2023/04/28 03:16:46;;;;;;;17.88;11.70;;;;;;;6.74;66.98;101634.91;7397004;19;20524;-63
2023/04/28 03:19:16;;;;;;;16.73;11.27;;;;;;;6.64;67.24;101630.09;7396448;19;20026;-63
2023/04/28 03:21:44;;;;;;;17.50;11.45;;;;;;;6.63;67.21;101621.38;7397016;19;20039;-65
2023/04/28 03:24:11;;;;;;;17.05;11.63;;;;;;;6.67;67.01;101622.94;7392366;19;20503;-64
2023/04/28 03:26:38;;;;;;;19.60;11.25;;;;;;;6.71;67.04;101613.13;7397044;19;20034;-63
2023/04/28 03:29:05;;;;;;;17.25;11.48;;;;;;;6.74;66.95;101610.38;7396747;19;20047;-65
2023/04/28 03:31:33;;;;;;;18.27;11.50;;;;;;;6.67;67.13;101604.53;7394584;19;20130;-64
2023/04/28 03:34:00;;;;;;;16.55;10.90;;;;;;;6.66;67.24;101601.97;7392882;19;20368;-65
2023/04/28 03:36:27;;;;;;;17.98;11.55;;;;;;;6.67;67.06;101601.88;7395848;19;20014;-65
2023/04/28 03:38:54;;;;;;;16.88;11.00;;;;;;;6.70;67.58;101593.00;7394060;19;20014;-64
2023/04/28 03:41:21;;;;;;;18.20;11.93;;;;;;;6.71;67.16;101598.19;7395774;19;20043;-74
2023/04/28 03:43:49;;;;;;;17.30;11.77;;;;;;;6.63;67.42;101592.41;7394058;19;20488;-70
2023/04/28 03:46:16;;;;;;;18.35;11.55;;;;;;;6.66;67.56;101579.13;7393415;19;20039;-68
2023/04/28 03:48:44;;;;;;;16.10;10.50;;;;;;;6.60;67.85;101576.75;7394281;19;20022;-68
2023/04/28 03:51:12;;;;;;;17.65;10.50;;;;;;;6.58;67.67;101579.47;7393756;19;20019;-77
2023/04/28 03:53:39;;;;;;;17.17;9.90;;;;;;;6.67;67.54;101569.44;7394756;19;20019;-77
2023/04/28 03:56:06;;;;;;;16.45;10.48;;;;;;;6.72;67.35;101572.75;7393040;19;20022;-71
2023/04/28 03:58:33;;;;;;;16.67;10.77;;;;;;;6.69;67.23;101565.00;7393997;19;20128;-77
2023/04/28 04:01:00;;;;;;;15.40;9.55;;;;;;;6.82;66.79;101566.13;7394075;19;20033;-71
2023/04/28 04:03:27;;;;;;;15.82;10.27;;;;;;;6.80;66.69;101571.47;7393190;19;20556;-69
2023/04/28 04:05:57;;;;;;;13.88;9.57;;;;;;;6.89;66.23;101558.81;7395877;19;20035;-69
2023/04/28 04:08:24;;;;;;;14.75;9.27;;;;;;;6.86;66.30;101558.97;7393498;19;20022;-71
2023/04/28 04:10:53;;;;;;;17.05;9.95;;;;;;;6.85;66.77;101552.84;7395566;19;20032;-74
2023/04/28 04:13:21;;;;;;;17.13;10.13;;;;;;;6.89;66.59;101554.41;7393420;19;20018;-74
2023/04/28 04:15:49;;;;;;;15.32;9.45;;;;;;;6.92;66.42;101549.00;7392687;19;20018;-70
2023/04/28 04:18:17;;;;;;;14.55;8.93;;;;;;;6.82;66.48;101548.56;7393658;19;20039;-72
2023/04/28 04:20:44;;;;;;;16.10;9.25;;;;;;;6.88;66.35;101544.81;7394416;19;20035;-73
2023/04/28 04:23:11;;;;;;;15.60;8.90;;;;;;;7.00;65.76;101540.75;7393602;19;20019;-72
2023/04/28 04:25:38;;;;;;;14.65;9.05;;;;;;;6.93;66.22;101532.28;7394350;19;20382;-72
2023/04/28 04:28:05;;;;;;;13.68;8.63;;;;;;;6.94;65.92;101533.13;7392830;19;20021;-71
2023/04/28 04:30:33;;;;;;;11.82;7.88;;;;;;;6.98;65.38;101522.41;7392954;19;20018;-69
2023/04/28 04:33:00;;;;;;;12.27;8.18;;;;;;;7.08;65.04;101523.66;7393937;19;20011;-73
2023/04/28 04:35:27;;;;;;;13.25;8.20;;;;;;;7.09;65.07;101525.38;7392647;19;20024;-70
2023/04/28 04:37:54;;;;;;;14.85;8.38;;;;;;;7.09;65.01;101521.88;7394309;19;20373;-74
2023/04/28 04:40:21;;;;;;;16.83;8.57;;;;;;;7.03;65.36;101517.78;7394457;19;20018;-72
2023/04/28 04:42:49;;;;;;;13.95;8.43;;;;;;;7.03;65.13;101514.28;7392743;19;20018;-72
2023/04/28 04:45:16;;;;;;;13.10;8.20;;;;;;;6.99;65.50;101513.59;7393348;19;20020;-71
2023/04/28 04:47:43;;;;;;;13.98;7.72;;;;;;;7.13;64.74;101514.69;7394013;19;20027;-70
2023/04/28 04:50:11;;;;;;;12.65;7.00;;;;;;;7.26;64.32;101508.78;7393972;19;20015;-68
2023/04/28 04:52:38;;;;;;;11.95;6.95;;;;;;;7.23;64.09;101505.44;7393266;19;20599;-69
2023/04/28 04:55:06;;;;;;;14.63;8.27;;;;;;;7.23;63.97;101495.75;7392604;19;20014;-68
2023/04/28 04:57:33;;;;;;;13.88;7.13;;;;;;;7.31;63.67;101493.59;7393558;19;20487;-68
2023/04/28 05:00:00;;;;;;;11.10;6.20;;;;;;;7.41;63.04;101491.41;7393479;19;20108;-72
2023/04/28 05:02:27;;;;;;;13.32;6.63;;;;;;;7.44;62.77;101496.53;7391724;19;20039;-69
2023/04/28 05:04:54;;;;;;;10.32;6.38;;;;;;;7.47;62.57;101490.22;7393070;19;20655;-67
2023/04/28 05:07:38;;;;;;;11.38;5.70;;;;;;;7.42;62.95;101501.00;7391934;19;20014;-67
2023/04/28 05:10:06;;;;;;;13.82;6.10;;;;;;;7.50;62.13;101496.19;7392223;19;20018;-68
2023/04/28 05:12:35;;;;;;;12.50;6.07;;;;;;;7.56;61.75;101495.91;7393274;19;20018;-68
2023/04/28 05:15:03;;;;;;;10.57;5.45;;;;;;;7.67;61.26;101499.78;7392932;19;20018;-71
2023/04/28 05:17:32;;;;;;;11.05;5.18;;;;;;;7.69;60.93;101503.22;7393462;19;20023;-69
2023/04/28 05:19:59;;;;;;;10.63;5.35;;;;;;;7.68;61.15;101504.16;7395209;19;20017;-71
2023/04/28 05:22:27;;;;;;;10.02;5.22;;;;;;;7.72;60.93;101506.56;7389815;19;20043;-70
2023/04/28 05:24:54;;;;;;;11.10;5.57;;;;;;;7.70;60.65;101502.28;7389709;19;20039;-69
2023/04/28 05:27:21;;;;;;;10.55;5.38;;;;;;;7.77;60.37;101501.88;7391912;19;20068;-70
2023/04/28 05:29:48;;;;;;;11.82;5.50;;;;;;;7.90;60.21;101498.63;7391285;19;20431;-70
2023/04/28 05:32:15;;;;;;;9.75;4.85;;;;;;;7.93;59.98;101494.06;7390018;19;20019;-70
2023/04/28 05:34:43;;;;;;;10.82;5.60;;;;;;;8.04;60.01;101486.44;7391146;19;20014;-69
2023/04/28 05:37:10;;;;;;;12.57;5.10;;;;;;;8.14;59.45;101486.00;7392959;19;20018;-69
2023/04/28 05:39:37;;;;;;;13.95;5.60;;;;;;;8.24;59.24;101490.72;7391415;19;20093;-69
2023/04/28 05:42:04;;;;;;;12.88;5.18;;;;;;;8.28;58.94;101483.50;7390781;19;20014;-73
2023/04/28 05:44:31;;;;;;;15.05;5.68;;;;;;;8.29;58.71;101477.28;7388455;19;20027;-70
2023/04/28 05:46:58;;;;;;;14.93;5.80;;;;;;;8.36;58.65;101472.53;7391873;19;20010;-69
2023/04/28 05:49:26;;;;;;;10.07;4.95;;;;;;;8.36;58.88;101472.53;7389851;19;20383;-68
2023/04/28 05:51:52;;;;;;;10.70;5.10;;;;;;;8.40;58.67;101459.13;7391769;19;20483;-69
2023/04/28 05:54:19;;;;;;;11.00;5.13;;;;;;;8.48;58.00;101464.00;7389626;19;20035;-69
2023/04/28 05:56:49;;;;;;;13.23;5.70;;;;;;;8.51;57.96;101461.19;7389862;19;20026;-69
2023/04/28 05:59:17;;;;;;;11.75;5.50;;;;;;;8.58;57.67;101457.28;7391028;19;20039;-70
2023/04/28 06:01:44;;;;;;;11.60;4.95;;;;;;;8.60;57.31;101457.19;7391900;19;20022;-70
2023/04/28 06:04:11;;;;;;;9.50;4.75;;;;;;;8.65;57.50;101468.34;7390482;19;20114;-69
2023/04/28 06:06:39;;;;;;;14.95;4.80;;;;;;;8.74;56.94;101460.81;7389248;19;20016;-69
2023/04/28 06:09:06;;;;;;;13.95;5.45;;;;;;;8.78;57.36;101457.06;7390800;19;20043;-69
2023/04/28 06:11:33;;;;;;;10.95;4.78;;;;;;;8.81;56.88;101453.38;7391606;19;20018;-70
2023/04/28 06:14:00;;;;;;;11.50;5.15;;;;;;;8.89;56.58;101459.09;7387938;19;20022;-69
2023/04/28 06:16:32;;;;;;;9.75;4.90;;;;;;;8.97;56.35;101464.81;7390009;19;20059;-69
2023/04/28 06:18:59;;;;;;;8.52;4.28;;;;;;;9.05;56.19;101453.81;7390780;19;20018;-70
2023/04/28 06:21:28;;;;;;;12.75;5.20;;;;;;;9.13;56.36;101450.75;7389279;19;20495;-69
2023/04/28 06:23:55;;;;;;;12.63;5.60;;;;;;;9.16;56.27;101461.16;7388405;19;20022;-69
2023/04/28 06:26:25;;;;;;;10.80;5.13;;;;;;;9.19;56.31;101461.81;7390782;19;20035;-69
2023/04/28 06:28:53;;;;;;;10.65;4.72;;;;;;;9.22;55.90;101459.00;7390276;19;20014;-69
2023/04/28 06:31:20;;;;;;;9.55;4.38;;;;;;;9.31;55.27;101452.34;7388888;19;20026;-74
2023/04/28 06:33:47;;;;;;;9.75;4.60;;;;;;;9.30;55.10;101453.28;7389448;19;20055;-75
2023/04/28 06:36:16;;;;;;;11.40;4.88;;;;;;;9.30;55.18;101449.78;7389512;19;20023;-75
2023/04/28 06:38:44;;;;;;;10.10;4.35;;;;;;;9.36;54.74;101447.66;7390519;19;20045;-75
2023/04/28 06:41:11;;;;;;;8.40;4.53;;;;;;;9.46;54.24;101447.94;7390493;19;20028;-75
2023/04/28 06:43:38;;;;;;;10.52;4.43;;;;;;;9.63;54.05;101444.34;7389229;19;20022;-75
2023/04/28 06:46:09;;;;;;;8.98;4.03;;;;;;;9.76;53.25;101445.31;7390267;19;20043;-75
2023/04/28 06:48:37;;;;;;;9.20;4.10;;;;;;;9.73;53.47;101427.84;7388546;19;20029;-74
2023/04/28 06:51:04;;;;;;;9.98;4.55;;;;;;;9.72;53.77;101431.41;7388696;19;20407;-73
2023/04/28 06:53:31;;;;;;;11.15;5.88;;;;;;;9.83;53.87;101432.56;7388047;19;20092;-74
2023/04/28 06:55:58;;;;;;;13.55;6.32;;;;;;;9.96;53.52;101433.56;7388798;19;20039;-74
2023/04/28 06:58:25;;;;;;;11.55;4.10;;;;;;;10.09;53.24;101431.00;7388843;19;20018;-75
2023/04/28 07:00:55;;;;;;;9.60;5.10;;;;;;;10.15;52.87;101422.69;7388906;19;20393;-75
2023/04/28 07:03:26;;;;;;;7.03;3.67;;;;;;;10.17;52.56;101420.81;7389678;19;20357;-75
2023/04/28 07:05:53;;;;;;;8.38;4.00;;;;;;;9.99;52.37;101423.63;7389540;19;20022;-76
2023/04/28 07:08:23;;;;;;;9.60;4.78;;;;;;;10.13;52.60;101409.56;7389850;19;20026;-74
2023/04/28 07:10:50;;;;;;;12.70;5.70;;;;;;;10.24;52.46;101411.53;7389690;19;20043;-75
2023/04/28 07:13:20;;;;;;;9.68;4.22;;;;;;;10.40;52.20;101408.81;7388809;19;20086;-74
2023/04/28 07:15:47;;;;;;;10.07;4.90;;;;;;;10.42;51.89;101410.44;7388003;19;20019;-74
2023/04/28 07:18:14;;;;;;;8.25;3.97;;;;;;;10.44;51.43;101413.81;7389898;19;20035;-75
2023/04/28 07:20:41;;;;;;;10.38;4.22;;;;;;;10.43;51.44;101409.50;7388004;19;20030;-78
2023/04/28 07:23:11;;;;;;;9.98;4.65;;;;;;;10.48;51.16;101403.91;7389097;19;20078;-76
2023/04/28 07:25:39;;;;;;;9.38;4.07;;;;;;;10.50;51.56;101399.38;7388445;19;20022;-75
2023/04/28 07:28:07;;;;;;;8.27;3.75;;;;;;;10.56;51.35;101403.41;7388095;19;20019;-76
2023/04/28 07:30:37;;;;;;;10.63;3.92;;;;;;;10.67;51.71;101403.59;7388966;19;20018;-76
2023/04/28 07:33:04;;;;;;;9.68;3.97;;;;;;;10.69;50.92;101412.31;7388496;19;20026;-76
2023/04/28 07:35:31;;;;;;;8.75;4.00;;;;;;;10.66;50.95;101410.69;7388537;19;20010;-76
2023/04/28 07:37:59;;;;;;;10.82;4.25;;;;;;;10.71;50.70;101415.69;7389605;19;20011;-76
2023/04/28 07:40:26;;;;;;;10.25;4.00;;;;;;;10.77;50.90;101412.66;7394562;19;20014;-75
2023/04/28 07:42:53;;;;;;;10.20;4.03;;;;;;;10.88;50.77;101415.47;7395856;19;20017;-74
2023/04/28 07:45:20;;;;;;;11.43;3.90;;;;;;;10.98;50.99;101413.91;7395924;19;20094;-76
2023/04/28 07:47:47;;;;;;;8.90;3.60;;;;;;;11.06;50.76;101405.47;7394652;19;20090;-76
2023/04/28 07:50:15;;;;;;;10.93;3.97;;;;;;;11.15;50.36;101406.69;7395722;19;20799;-75
2023/04/28 07:52:42;;;;;;;10.15;3.90;;;;;;;11.16;50.46;101403.06;7394891;19;20058;-75
2023/04/28 07:55:11;;;;;;;11.02;4.43;;;;;;;11.10;50.21;101399.00;7394071;19;20047;-75
2023/04/28 07:57:41;;;;;;;10.00;4.38;;;;;;;11.12;50.41;101390.97;7395594;19;20018;-75
2023/04/28 08:00:08;;;;;;;14.75;4.70;;;;;;;11.07;50.71;101390.44;7395836;19;20021;-75
2023/04/28 08:02:35;;;;;;;15.60;4.60;;;;;;;11.09;50.80;101389.34;7394786;19;20034;-75
2023/04/28 08:05:03;;;;;;;10.52;3.83;;;;;;;11.20;51.08;101392.16;7395147;19;20035;-75
2023/04/28 08:07:30;;;;;;;7.43;3.83;;;;;;;11.30;51.06;101387.09;7395802;19;20011;-75
2023/04/28 08:09:58;;;;;;;11.68;4.47;;;;;;;11.43;50.40;101381.81;7394752;19;20025;-75
2023/04/28 08:12:27;;;;;;;9.23;4.40;;;;;;;11.60;50.21;101383.31;7394736;19;20018;-76
2023/04/28 08:14:55;;;;;;;10.30;4.25;;;;;;;11.71;50.31;101378.13;7394709;19;20511;-75
2023/04/28 08:17:25;;;;;;;9.77;4.30;;;;;;;11.82;49.99;101377.41;7392470;19;20018;-76
2023/04/28 08:19:52;;;;;;;13.25;5.88;;;;;;;11.91;49.91;101367.03;7393293;19;20497;-78
2023/04/28 08:22:19;;;;;;;20.70;10.48;;;;;;;12.06;49.57;101369.59;7395202;19;20027;-72
2023/04/28 08:24:45;;;;;;;23.65;10.98;;;;;;;12.15;49.26;101366.28;7394836;19;20339;-73
2023/04/28 08:27:16;;;;;;;10.52;5.50;;;;;;;12.22;48.86;101364.91;7394715;19;20025;-73
2023/04/28 08:29:43;;;;;;;10.73;4.50;;;;;;;12.19;48.88;101365.09;7394163;19;20015;-72
2023/04/28 08:32:12;;;;;;;9.88;4.50;;;;;;;12.26;49.17;101369.03;7393943;19;20366;-72
2023/04/28 08:34:39;;;;;;;13.68;5.00;;;;;;;12.29;50.19;101366.16;7394454;19;20022;-72
2023/04/28 08:37:06;;;;;;;11.25;5.35;;;;;;;12.38;49.04;101362.00;7392510;19;20010;-72
2023/04/28 08:39:34;;;;;;;10.18;5.13;;;;;;;12.39;48.36;101366.34;7392855;19;20082;-71
2023/04/28 08:42:04;;;;;;;11.20;5.28;;;;;;;12.41;47.93;101356.47;7393032;19;20372;-72
2023/04/28 08:44:38;;;;;;;11.32;5.50;;;;;;;12.47;47.54;101356.00;7392626;19;20023;-72
2023/04/28 08:47:12;;;;;;;11.70;5.45;;;;;;;12.56;47.29;101365.16;7393793;19;20023;-72
2023/04/28 08:49:43;;;;;;;13.02;5.10;;;;;;;12.56;47.14;101358.03;7393926;19;20018;-72
2023/04/28 08:52:16;;;;;;;10.13;5.20;;;;;;;12.65;47.46;101356.50;7391657;19;20015;-70
2023/04/28 08:54:45;;;;;;;9.88;5.35;;;;;;;12.71;47.90;101357.88;7392614;19;20019;-71
2023/04/28 08:57:12;;;;;;;11.45;4.90;;;;;;;12.82;48.05;101360.56;7392137;19;20021;-72
2023/04/28 08:59:42;;;;;;;10.45;5.40;;;;;;;12.86;47.74;101357.59;7393629;19;20026;-71
2023/04/28 09:02:10;;;;;;;11.85;5.95;;;;;;;12.92;47.66;101359.78;7393825;19;20018;-70
2023/04/28 09:04:40;;;;;;;9.95;5.55;;;;;;;12.93;47.32;101350.88;7394456;19;20316;-71
2023/04/28 09:07:11;;;;;;;12.48;5.43;;;;;;;12.96;47.34;101348.94;7393500;19;20035;-70
2023/04/28 09:09:43;;;;;;;11.40;5.65;;;;;;;12.96;47.37;101348.94;7392305;19;20018;-72
2023/04/28 09:12:10;;;;;;;12.63;5.57;;;;;;;12.95;47.51;101348.06;7393221;19;20039;-71
2023/04/28 09:14:40;;;;;;;12.18;6.10;;;;;;;12.93;47.58;101344.66;7393158;19;20021;-71
2023/04/28 09:17:13;;;;;;;10.32;5.60;;;;;;;12.99;47.70;101343.38;7391903;19;20015;-70
2023/04/28 09:19:42;;;;;;;11.63;5.97;;;;;;;13.06;47.76;101344.63;7392858;19;20019;-70
2023/04/28 09:22:09;;;;;;;10.52;6.20;;;;;;;13.12;47.68;101349.47;7392267;19;20015;-70
2023/04/28 09:24:52;;;;;;;14.10;6.00;;;;;;;13.07;47.75;101347.16;7393055;19;20006;-70
2023/04/28 09:27:26;;;;;;;11.85;5.38;;;;;;;13.05;47.87;101346.44;7392798;19;20030;-70
2023/04/28 09:29:53;;;;;;;11.68;6.20;;;;;;;12.97;47.60;101350.59;7392902;19;20014;-71
2023/04/28 09:32:26;;;;;;;10.55;5.50;;;;;;;12.95;47.61;101342.75;7390975;19;20022;-71
2023/04/28 09:34:56;;;;;;;9.75;5.80;;;;;;;12.95;47.30;101340.09;7391169;19;20018;-71
2023/04/28 09:37:30;;;;;;;15.95;6.75;;;;;;;12.99;47.57;101340.72;7388986;19;20023;-70
2023/04/28 09:40:05;;;;;;;11.23;5.85;;;;;;;13.04;47.59;101343.88;7392069;19;20531;-71
2023/04/28 09:42:36;;;;;;;11.35;5.68;;;;;;;13.02;48.04;101346.66;7391844;19;20015;-70
2023/04/28 09:45:05;;;;;;;12.32;5.65;;;;;;;13.11;48.33;101335.34;7392335;19;20018;-70
2023/04/28 09:47:34;;;;;;;13.05;5.88;;;;;;;13.19;48.12;101334.75;7391839;19;20014;-70
2023/04/28 09:50:08;;;;;;;9.98;5.47;;;;;;;13.24;47.74;101330.00;7392068;19;20085;-70
2023/04/28 09:52:58;;;;;;;14.13;6.03;;;;;;;13.26;47.87;101335.19;7391414;19;20019;-70
2023/04/28 09:55:27;;;;;;;10.07;5.80;;;;;;;13.30;47.88;101336.63;7392177;19;20018;-71
2023/04/28 09:57:54;;;;;;;11.98;6.18;;;;;;;13.34;48.78;101328.31;7390074;19;20051;-71
2023/04/28 10:00:22;;;;;;;11.20;5.93;;;;;;;13.45;49.11;101326.66;7392114;19;20014;-71
2023/04/28 10:02:50;;;;;;;11.00;6.07;;;;;;;13.54;48.80;101329.44;7389369;19;20045;-71
2023/04/28 10:05:18;;;;;;;12.57;5.93;;;;;;;13.63;48.58;101322.56;7390422;19;20019;-71
2023/04/28 10:07:46;;;;;;;14.20;6.75;;;;;;;13.74;48.39;101322.59;7390597;19;20010;-72
2023/04/28 10:10:13;;;;;;;10.70;5.93;;;;;;;13.81;47.61;101323.81;7391914;19;20064;-72
2023/04/28 10:12:44;;;;;;;11.63;6.18;;;;;;;13.89;47.54;101313.41;7391154;19;20018;-70
2023/04/28 10:15:15;;;;;;;10.35;6.07;;;;;;;13.93;47.94;101314.00;7391948;19;20026;-70
2023/04/28 10:17:42;;;;;;;12.48;6.07;;;;;;;14.02;48.22;101312.44;7390077;19;20014;-71
2023/04/28 10:20:10;;;;;;;13.50;6.28;;;;;;;14.12;48.07;101314.25;7391115;19;20022;-69
2023/04/28 10:23:02;;;;;;;11.23;6.13;;;;;;;14.22;47.96;101313.50;7390778;19;20018;-69
2023/04/28 10:25:33;;;;;;;10.40;5.75;;;;;;;14.26;48.39;101312.28;7390831;19;20027;-71
2023/04/28 10:28:03;;;;;;;12.98;6.70;;;;;;;14.31;48.41;101302.13;7390734;19;20588;-74
2023/04/28 10:30:30;;;;;;;13.55;6.78;;;;;;;14.24;48.97;101301.75;7390278;19;20025;-73
2023/04/28 10:33:13;;;;;;;13.35;6.63;;;;;;;14.38;48.76;101293.50;7390732;19;20018;-78
2023/04/28 10:35:47;;;;;;;13.55;6.68;;;;;;;14.33;49.30;101294.84;7389040;19;20033;-73
2023/04/28 10:38:15;;;;;;;;;;;;;;;14.15;48.89;101289.16;7391033;19;20019;-72
2023/04/28 10:40:47;;;;;;;9.57;6.13;;;;;;;14.07;49.66;101283.59;7388967;19;19925;-71
2023/04/28 10:43:27;;;;;;;12.02;6.68;;;;;;;14.00;49.51;101282.41;7387949;19;20018;-72
2023/04/28 10:46:00;;;;;;;11.75;6.28;;;;;;;13.87;50.28;101280.72;7388525;19;20022;-71
2023/04/28 10:48:28;;;;;;;13.88;6.90;;;;;;;13.75;50.42;101276.38;7388542;19;20557;-71
2023/04/28 10:53:51;;;;;;;12.15;6.65;;;;;;;13.88;50.43;101270.91;7389296;19;20032;-72
2023/04/28 10:56:24;;;;;;;12.25;6.82;;;;;;;13.80;50.51;101276.84;7387389;19;20015;-72
2023/04/28 10:58:56;;;;;;;11.98;6.70;;;;;;;13.76;50.93;101275.38;7389342;19;20014;-71
2023/04/28 11:01:28;;;;;;;11.77;6.10;;;;;;;13.71;50.85;101268.75;7390478;19;20019;-71
2023/04/28 11:03:59;;;;;;;13.45;7.13;;;;;;;13.65;50.98;101268.25;7388051;19;20032;-74
2023/04/28 11:06:41;;;;;;;12.82;6.57;;;;;;;13.64;51.12;101260.38;7388328;19;20022;-73
2023/04/28 11:09:14;;;;;;;11.95;6.82;;;;;;;13.59;51.17;101258.09;7388332;19;20018;-73
2023/04/28 11:11:59;;;;;;;11.43;6.95;;;;;;;13.65;51.40;101262.06;7390773;19;20018;-73
2023/04/28 11:14:32;;;;;;;14.25;7.50;;;;;;;13.69;51.58;101252.88;7390381;19;20039;-73
2023/04/28 11:17:04;;;;;;;12.25;6.82;;;;;;;13.89;51.23;101251.31;7394012;19;20026;-72
2023/04/28 11:19:43;;;;;;;11.45;6.88;;;;;;;13.98;50.96;101249.72;7394411;19;20039;-73
2023/04/28 11:22:17;;;;;;;14.05;7.43;;;;;;;13.97;50.82;101240.91;7396952;19;20129;-71
2023/04/28 11:25:02;;;;;;;11.73;6.95;;;;;;;14.02;50.98;101238.69;7396914;19;20011;-71
2023/04/28 11:27:33;;;;;;;12.95;7.30;;;;;;;14.10;51.16;101235.41;7396930;19;20026;-71
2023/04/28 11:30:01;;;;;;;13.40;7.03;;;;;;;14.11;50.98;101237.09;7395229;19;20071;-71